Mitsukawa Maru — JD2495 — position and weather

sailwx.info

Track history (hours):
 
Tides and Currents Weather Stations Pressure Air Temp Water Temp Dewpoint Dewpoint Depression Visibility Wind Speed Wind Dir Waves Ship Positions

Mitsukawa Maru

Last reported at 2015-Mar-11 14:33 UTC. Time now 2015-Apr-01 01:11 UTC.
Position N 35°00' E 139°31'.
Warning: this ship's position is 20 days out of date.

Length 105 m; draft 4.2 m.

Type: Cargo ship. MMSI: 431000326.

Date/timePositionNaut miles runAvg speedWind from/ knotsBaromVisibWave heightAir tempDewpointWater temp
2015-Mar-11 14:33N 35°00' E 139°31'1110.7
2015-Mar-11 13:33N 35°07' E 139°41'1010.5
2015-Mar-11 12:34N 35°16' E 139°46'1110.7
2015-Mar-11 11:33N 35°27' E 139°47'11 0.9
2015-Mar-10 22:33N 35°33' E 139°59'1212.6
2015-Mar-10 21:34N 35°25' E 139°47'1111.3
2015-Mar-10 20:33N 35°14' E 139°47'1212.0
2015-Mar-10 19:33N 35°03' E 139°41'1412.7
2015-Mar-10 18:29N 34°54' E 139°28'  
2015-Mar-06 16:34N 34°05' E 134°55'1514.7
2015-Mar-06 15:33N 34°19' E 134°59'1414.0
2015-Mar-06 14:33N 34°33' E 135°02'8 8.3
2015-Mar-06 13:33N 34°34' E 134°52'  
Track history (hours):
 
Tides and Currents Weather Stations Pressure Air Temp Water Temp Dewpoint Dewpoint Depression Visibility Wind Speed Wind Dir Waves Ship Positions

Mitsukawa Maru

Last reported at 2015-Mar-11 14:33 UTC. Time now 2015-Apr-01 01:11 UTC.
Position N 35°00' E 139°31'.
Warning: this ship's position is 20 days out of date.

Length 105 m; draft 4.2 m.

Type: Cargo ship. MMSI: 431000326.

Date/timePositionNaut miles runAvg speedWind from/ knotsBaromVisibWave heightAir tempDewpointWater temp
2015-Mar-11 14:33N 35°00' E 139°31'1110.7
2015-Mar-11 13:33N 35°07' E 139°41'1010.5
2015-Mar-11 12:34N 35°16' E 139°46'1110.7
2015-Mar-11 11:33N 35°27' E 139°47'11 0.9
2015-Mar-10 22:33N 35°33' E 139°59'1212.6
2015-Mar-10 21:34N 35°25' E 139°47'1111.3
2015-Mar-10 20:33N 35°14' E 139°47'1212.0
2015-Mar-10 19:33N 35°03' E 139°41'1412.7
2015-Mar-10 18:29N 34°54' E 139°28'  
2015-Mar-06 16:34N 34°05' E 134°55'1514.7
2015-Mar-06 15:33N 34°19' E 134°59'1414.0
2015-Mar-06 14:33N 34°33' E 135°02'8 8.3
2015-Mar-06 13:33N 34°34' E 134°52'  

Dump ship's entire track history